シドニー の空港の天気 - METARとTAF

シドニー国際空港 ( YSSY / SYD ) - オーストラリア ニューサウスウェールズ州、Mascot
飛行場実況気象(Metar)
観測時間08/11 17:00 AEST (08/11 07:00 UTC)
風向・風速東北東 4m/s
視程10km以上
天気現象
全天の4割程度の雲 雲底高度 1460m
気温15℃
湿度67%
気圧1018hPa
METARYSSY 110700Z 07007KT 9999 SCT048 15/09 Q1018 NOSIG
過去の天気等 Google飛行場航空写真 Wunderground天気予報

過去48時間のMETAR

飛行場予報(TAF)
発表時間: 8/11 15:09 AEST (8/11 05:09 UTC)
予報対象時間: 11日16時 AEST ~ 12日22時 AEST
風向・風速東 4m/s
視程10km以上
少しの雲 雲底高度 910m
全天の4割程度の雲 雲底高度 1520m
11日18時 AEST から
風向・風速北東 3m/s
視程10km以上
少しの雲 雲底高度 1220m
11日22時 AEST から
風向・風速北西 4m/s
視程10km以上
なし
12日16時 AEST から
風向・風速北北東 6m/s
視程10km以上
全天の4割程度の雲 雲底高度 1220m
TAF YSSY 110509Z 1106/1212 09007KT 9999 FEW030 SCT050
FM110800 04006KT 9999 FEW040
FM111200 31008KT CAVOK
FM120600 03012KT 9999 SCT040